Meath Environmental Platform

Observations

Time Sensor AQI SAQ Temp °C Hum % Pres Pa CO μg/m³ H₂S μg/m³ NO μg/m³ NO₂ μg/m³ O₃ μg/m³ SO₂ μg/m³ CO₂e PPM VOC PPM PM1 μg/m³ PM2.5 μg/m³ PM4 μg/m³ PM10 μg/m³ TPS µm
Tuesday 11 August 2026
08:33 Trim Market St 1 25.9 50 59,464 0.43 0 1.39 11.25 0 0 0.71 2.95 3.06
08:33 Trim Patrick St 1 22.4 58 75,619 0.3 0 3.91 11.48 0 1.53 2.86 7.39 8.13
08:32 Trim Market St 1 25.8 51 59,073 0.42 0 1.4 11.86 11.92 0 0.71 3.45 4.56
08:32 Trim Patrick St 1 22.3 58 75,788 0.35 0 4.22 20.21 0 3.06 2.86 7.38 8.12
08:31 Trim Market St 1 25.6 51 58,341 0.41 0 1.4 10.43 0 0 1.43 3.45 3.82
08:31 Trim Patrick St 1 22.2 58 75,971 0.31 0 4.05 11.59 0 2.57 3.71 8.15 8.96
08:30 Trim Market St 1 25.4 51 57,723 0.41 0 1.47 11.1 0 0 1.43 3.44 3.83
08:30 Trim Patrick St 1 22 59 76,138 0.31 0 3.44 12.28 2.25 2.32 4.57 8.83 9.71
08:29 Trim Market St 1 25.2 51 57,181 0.43 0 1.58 10.14 0 0 0 2.91 3.1
08:29 Trim Patrick St 1 22 58 76,325 0.32 0 3.52 9.15 0 1.96 3.71 7.37 8.1
08:28 Trim Market St 1 25.1 52 56,731 0.41 0 1.59 9.73 0 0 0.71 2.9 3.11
08:28 Trim Patrick St 1 21.8 59 76,556 0.34 0 3.62 11.49 0 1.46 3.71 8.05 8.86
08:27 Trim Patrick St 1 21.7 60 76,820 0.36 0 3.55 11.66 0 1.77 2.86 7.29 8.02
08:26 Trim Patrick St 1 21.6 60 77,064 0.35 0 3.64 12.78 0 1.86 3.71 8.77 9.65
08:25 Trim Patrick St 1 21.4 60 77,292 0.37 0 3.56 12.09 0 1.73 3.71 8.01 8.81
08:24 Trim Patrick St 1 21.3 60 77,603 0.38 0 3.7 10.89 0 1.32 2.86 7.25 7.97
08:24 Trim Market St 1 24.5 53 56,001 0.4 0 1.54 8.51 0 0 0.71 2.83 3.89
08:23 Trim Patrick St 1 21.2 60 77,878 0.4 0 3.49 11.52 0 1.66 5.43 9.46 10.4
08:22 Trim Patrick St 1 21 61 78,151 0.42 0 3.57 12.03 0 2.07 2.86 7.21 7.93
08:21 Trim Patrick St 1 20.9 61 78,407 0.5 0 3.58 12.42 0 1.77 3.71 7.95 8.74